Weeki Wachee, Florida
Current Conditions -  °F | °C
As of 9:53 AM on Thursday 18 Dec 2014 (Local Time) from KBKV Reporting Station
Clear Clear  
Wind Chill: 59°   Ceiling: Unl
Heat Index: 59°   Visibility: 10mi
Dew Point: 50°   Wind: 3mph
Humidity: 72%   Direction: NA
Pressure: 30.21"   Gusts: NA
Location:  28.4982°N, 82.633°W
Report Text: KBKV 181453Z VRB03KT 10SM CLR 15/10 A3021 RMK AO2 SLP230 T01500100 53013
Loading
Personal Weather Stations






























Interactive Weather Map New forecast layout! Learn more

10-Day Weather Forecast

Advertisements
Track Severe Weather on mobile